Time;durP1;ratioP1;P1;durP2;ratioP2;P2;SDS_P1;SDS_P2;PMS_P1;PMS_P2;Temp;Humidity;BMP_temperature;BMP_pressure;BME280_temperature;BME280_humidity;BME280_pressure;Samples;Min_cycle;Max_cycle;Signal;HPM_P1;HPM_P2
2021/04/27 04:01:23;;;;;;;3.40;3.10;;;6.70;66.40;;;;;;5500579;23;20499;-65
2021/04/27 04:03:50;;;;;;;2.90;2.70;;;6.60;66.90;;;;;;4975996;28;20515;-66
2021/04/27 04:06:16;;;;;;;3.20;2.90;;;6.60;67.20;;;;;;4976722;28;20513;-65
2021/04/27 04:08:42;;;;;;;3.30;3.00;;;6.60;67.60;;;;;;4976817;28;20459;-66
2021/04/27 04:11:09;;;;;;;3.73;2.67;;;6.50;67.80;;;;;;4977248;28;20474;-66
2021/04/27 04:13:35;;;;;;;3.63;3.10;;;6.50;68.10;;;;;;4979276;28;20462;-66
2021/04/27 04:16:01;;;;;;;4.40;2.77;;;6.50;68.70;;;;;;4977753;28;21019;-66
2021/04/27 04:18:28;;;;;;;3.03;2.73;;;6.50;68.70;;;;;;4976688;28;20470;-66
2021/04/27 04:20:55;;;;;;;2.80;2.60;;;6.50;69.00;;;;;;4976738;28;20485;-66
2021/04/27 04:23:21;;;;;;;4.13;3.17;;;6.40;69.40;;;;;;4976684;28;20454;-66
2021/04/27 04:25:47;;;;;;;3.47;3.17;;;6.30;69.60;;;;;;4976506;28;20450;-66
2021/04/27 04:28:14;;;;;;;4.30;2.80;;;6.20;70.30;;;;;;4976593;28;20812;-67
2021/04/27 04:30:40;;;;;;;3.63;2.67;;;6.30;70.80;;;;;;4976312;28;20478;-65
2021/04/27 04:33:06;;;;;;;3.17;2.97;;;6.10;71.30;;;;;;4976373;28;20826;-66
2021/04/27 04:35:33;;;;;;;5.13;3.60;;;6.10;71.60;;;;;;4976181;28;20483;-65
2021/04/27 04:38:00;;;;;;;2.77;2.57;;;6.10;72.20;;;;;;4976093;28;20465;-65
2021/04/27 04:40:27;;;;;;;5.07;3.17;;;6.10;72.60;;;;;;4976291;28;20462;-66
2021/04/27 04:42:53;;;;;;;4.90;2.30;;;6.20;72.90;;;;;;4976226;28;20459;-65
2021/04/27 04:45:19;;;;;;;3.97;2.80;;;6.20;72.90;;;;;;4976327;28;20454;-66
2021/04/27 04:47:46;;;;;;;3.80;2.73;;;6.20;73.30;;;;;;4975915;28;20961;-65
2021/04/27 04:50:15;;;;;;;4.50;3.80;;;6.30;73.00;;;;;;4976042;28;20509;-65
2021/04/27 04:52:42;;;;;;;4.80;3.10;;;6.40;73.40;;;;;;4976130;28;20454;-65
2021/04/27 04:55:10;;;;;;;3.37;3.17;;;6.30;73.10;;;;;;4975577;28;20482;-65
2021/04/27 04:57:38;;;;;;;3.13;2.83;;;6.40;73.80;;;;;;4975987;28;20439;-66
2021/04/27 05:00:05;;;;;;;5.63;3.37;;;6.50;73.10;;;;;;4975757;28;20455;-66
2021/04/27 05:02:32;;;;;;;4.13;3.43;;;6.60;73.00;;;;;;4977428;28;20483;-65
2021/04/27 05:04:58;;;;;;;9.37;3.53;;;6.60;73.40;;;;;;4977143;28;20451;-65
2021/04/27 05:07:26;;;;;;;4.20;3.07;;;6.70;73.30;;;;;;4976338;28;20462;-66
2021/04/27 05:09:53;;;;;;;5.37;3.03;;;6.70;76.90;;;;;;4975556;28;20466;-65
2021/04/27 05:12:19;;;;;;;5.73;3.10;;;6.90;92.70;;;;;;4975964;28;20474;-66
2021/04/27 05:14:45;;;;;;;3.07;2.87;;;7.20;94.50;;;;;;4975616;28;20837;-65
2021/04/27 05:17:14;;;;;;;3.30;3.00;;;7.30;90.20;;;;;;4975478;28;20455;-67
2021/04/27 05:19:40;;;;;;;6.53;2.80;;;7.60;93.70;;;;;;4974896;28;20894;-66
2021/04/27 05:22:08;;;;;;;3.60;3.20;;;7.70;90.70;;;;;;4974937;28;20537;-66
2021/04/27 05:24:37;;;;;;;3.57;3.20;;;7.80;82.40;;;;;;4975008;28;20450;-65
2021/04/27 05:27:05;;;;;;;3.53;3.23;;;7.80;78.70;;;;;;4975193;28;20458;-65
2021/04/27 05:29:31;;;;;;;6.73;3.80;;;7.80;82.70;;;;;;4975918;28;20462;-65
2021/04/27 05:31:57;;;;;;;4.70;3.10;;;7.90;85.20;;;;;;4974997;28;20478;-66
2021/04/27 05:34:24;;;;;;;5.20;3.07;;;7.90;84.90;;;;;;4974649;28;21052;-65
2021/04/27 05:36:50;;;;;;;4.73;3.80;;;8.10;82.00;;;;;;4975158;28;20455;-65
2021/04/27 05:39:16;;;;;;;6.13;3.87;;;8.30;87.80;;;;;;4975105;28;20462;-66
2021/04/27 05:41:43;;;;;;;8.33;3.73;;;8.50;78.50;;;;;;4974893;28;20478;-66
2021/04/27 05:44:10;;;;;;;12.60;4.40;;;9.00;84.40;;;;;;4975003;28;20454;-65
2021/04/27 05:46:36;;;;;;;9.80;4.30;;;9.20;85.30;;;;;;4975005;28;20454;-66
2021/04/27 05:49:03;;;;;;;6.87;3.53;;;9.30;69.60;;;;;;4975331;28;20466;-65
2021/04/27 05:51:29;;;;;;;3.83;3.53;;;9.40;74.70;;;;;;4974863;28;20478;-65
2021/04/27 05:53:55;;;;;;;6.90;3.73;;;9.40;78.40;;;;;;4974879;28;20455;-66
2021/04/27 05:56:22;;;;;;;4.30;3.90;;;9.50;72.60;;;;;;4975044;28;20828;-66
2021/04/27 05:58:48;;;;;;;3.83;3.53;;;9.50;71.20;;;;;;4974692;28;21023;-64
2021/04/27 06:01:15;;;;;;;6.73;3.63;;;9.40;71.80;;;;;;4974888;28;20513;-64
2021/04/27 06:03:41;;;;;;;4.20;3.67;;;9.30;70.10;;;;;;4974959;28;20466;-66
2021/04/27 06:06:08;;;;;;;3.43;3.13;;;9.40;76.70;;;;;;4974868;28;20465;-65
2021/04/27 06:08:35;;;;;;;5.50;3.63;;;9.70;72.70;;;;;;4974965;28;20457;-65
2021/04/27 06:11:01;;;;;;;7.80;3.93;;;9.80;74.00;;;;;;4974806;28;20489;-65
2021/04/27 06:13:27;;;;;;;4.80;3.60;;;9.80;69.80;;;;;;4974847;28;20459;-66
2021/04/27 06:15:54;;;;;;;4.93;3.50;;;9.90;71.50;;;;;;4974610;28;20486;-65
2021/04/27 06:18:21;;;;;;;5.17;3.80;;;10.30;69.50;;;;;;4974884;28;20458;-66
2021/04/27 06:20:47;;;;;;;5.77;4.10;;;10.50;67.90;;;;;;4974817;28;20537;-65
2021/04/27 06:23:13;;;;;;;5.07;4.10;;;10.60;66.50;;;;;;4974869;28;20462;-64
2021/04/27 06:25:40;;;;;;;6.87;4.70;;;11.00;68.80;;;;;;4974867;28;20451;-65
2021/04/27 06:28:06;;;;;;;5.80;3.50;;;11.20;62.00;;;;;;4978194;28;20458;-65
2021/04/27 06:30:32;;;;;;;4.57;3.63;;;11.40;64.70;;;;;;4978299;28;20502;-65
2021/04/27 06:32:58;;;;;;;8.13;4.50;;;11.70;69.40;;;;;;4977970;28;20466;-64
2021/04/27 06:35:26;;;;;;;4.30;3.90;;;12.20;61.70;;;;;;4978562;28;20478;-67
2021/04/27 06:37:52;;;;;;;6.30;4.50;;;11.90;62.90;;;;;;4978310;28;20454;-67
2021/04/27 06:40:19;;;;;;;4.60;4.17;;;12.10;63.00;;;;;;4977813;28;20821;-67
2021/04/27 06:42:45;;;;;;;4.83;3.90;;;12.30;64.50;;;;;;4977726;28;20862;-68
2021/04/27 06:45:13;;;;;;;8.37;3.80;;;13.20;65.80;;;;;;4983496;28;20451;-68
2021/04/27 06:47:39;;;;;;;5.10;4.10;;;14.00;59.00;;;;;;4986341;28;20462;-65
2021/04/27 06:50:07;;;;;;;7.90;4.23;;;14.40;57.10;;;;;;4987580;28;20462;-65
2021/04/27 06:52:34;;;;;;;4.40;3.63;;;14.50;54.70;;;;;;4985615;28;20471;-66
2021/04/27 06:55:01;;;;;;;4.60;4.20;;;14.40;54.30;;;;;;4981905;28;21008;-67
2021/04/27 06:57:28;;;;;;;6.30;4.47;;;14.10;54.30;;;;;;4978338;28;20454;-65
2021/04/27 06:59:55;;;;;;;4.80;4.40;;;14.20;54.50;;;;;;4978304;28;20455;-65
2021/04/27 07:02:21;;;;;;;4.57;4.17;;;14.40;53.50;;;;;;4977650;28;21094;-66
2021/04/27 07:04:47;;;;;;;4.70;4.30;;;14.30;55.70;;;;;;4978203;28;20455;-65
2021/04/27 07:07:13;;;;;;;4.80;4.00;;;14.00;55.80;;;;;;4978133;28;20450;-65
2021/04/27 07:09:41;;;;;;;7.20;4.37;;;14.40;56.90;;;;;;4978061;28;20454;-66
2021/04/27 07:12:07;;;;;;;4.63;4.23;;;14.90;54.20;;;;;;4977445;28;20505;-66
2021/04/27 07:14:34;;;;;;;5.60;4.47;;;14.90;55.10;;;;;;4977261;28;20533;-66
2021/04/27 07:17:00;;;;;;;7.20;4.60;;;15.70;52.50;;;;;;4977692;28;20458;-65
2021/04/27 07:19:27;;;;;;;4.47;3.80;;;16.30;52.50;;;;;;4977565;28;20966;-65
2021/04/27 07:21:54;;;;;;;5.07;4.57;;;15.70;52.10;;;;;;4977132;28;20481;-66
2021/04/27 07:24:20;;;;;;;4.80;4.30;;;16.10;51.80;;;;;;4977731;28;20438;-66
2021/04/27 07:26:49;;;;;;;7.90;4.70;;;16.30;50.20;;;;;;4977624;28;20513;-65
2021/04/27 07:29:16;;;;;;;8.67;5.30;;;16.20;50.80;;;;;;4976793;28;20454;-65
2021/04/27 07:31:43;;;;;;;5.33;4.87;;;16.90;51.20;;;;;;4976970;28;20471;-65
2021/04/27 07:34:10;;;;;;;5.70;5.10;;;16.50;52.20;;;;;;4976942;28;20505;-65
2021/04/27 07:36:36;;;;;;;11.20;4.53;;;16.90;51.60;;;;;;4977058;28;20513;-64
2021/04/27 07:39:05;;;;;;;5.20;4.70;;;16.20;50.70;;;;;;4977435;28;20529;-64
2021/04/27 07:41:31;;;;;;;7.10;4.70;;;17.00;49.60;;;;;;4977013;28;20479;-64
2021/04/27 07:43:58;;;;;;;4.90;4.50;;;16.80;50.80;;;;;;4976995;28;20455;-64
2021/04/27 07:46:24;;;;;;;6.07;5.57;;;16.50;50.50;;;;;;4977117;28;20454;-64
2021/04/27 07:48:50;;;;;;;5.83;5.20;;;17.70;50.60;;;;;;4976738;28;20462;-64
2021/04/27 07:51:16;;;;;;;6.33;5.70;;;18.20;47.60;;;;;;4976855;28;20471;-63
2021/04/27 07:53:43;;;;;;;8.70;5.60;;;18.70;48.30;;;;;;4977115;28;20470;-63
2021/04/27 07:56:09;;;;;;;6.47;5.87;;;18.80;47.90;;;;;;4976967;28;20478;-63
2021/04/27 07:58:35;;;;;;;7.83;5.03;;;18.90;47.10;;;;;;4976762;28;20455;-62
2021/04/27 08:01:03;;;;;;;5.53;4.60;;;18.70;47.10;;;;;;4976374;28;20482;-62
2021/04/27 08:03:29;;;;;;;9.00;4.97;;;18.60;46.60;;;;;;4976559;28;20979;-62
2021/04/27 08:05:56;;;;;;;5.83;5.23;;;18.40;46.80;;;;;;4976848;28;20435;-65
2021/04/27 08:08:22;;;;;;;8.43;5.47;;;18.20;47.60;;;;;;4976866;28;20458;-63
2021/04/27 08:10:49;;;;;;;5.93;5.33;;;18.40;48.30;;;;;;4976962;28;20482;-62
2021/04/27 08:13:15;;;;;;;5.93;5.30;;;18.70;47.90;;;;;;4976565;28;20454;-63
2021/04/27 08:15:42;;;;;;;6.03;5.23;;;18.80;46.70;;;;;;4976288;28;20574;-62
2021/04/27 08:18:09;;;;;;;7.90;5.37;;;18.90;48.70;;;;;;4976420;28;20459;-63
2021/04/27 08:20:36;;;;;;;8.43;5.93;;;18.60;46.90;;;;;;4975827;28;20474;-64
2021/04/27 08:23:04;;;;;;;6.20;5.23;;;17.70;48.40;;;;;;4975717;28;20458;-63
2021/04/27 08:25:31;;;;;;;5.50;5.00;;;17.70;48.20;;;;;;4976183;28;20439;-62
2021/04/27 08:27:59;;;;;;;5.63;5.23;;;18.90;49.30;;;;;;4976135;28;20465;-64
2021/04/27 08:30:26;;;;;;;6.03;5.40;;;19.40;48.10;;;;;;4976135;28;20454;-64
2021/04/27 08:32:53;;;;;;;6.57;5.03;;;19.90;47.40;;;;;;4975982;28;20451;-64
2021/04/27 08:35:21;;;;;;;7.13;5.70;;;20.60;47.50;;;;;;4975590;28;20509;-64
2021/04/27 08:37:47;;;;;;;6.30;5.50;;;20.30;45.00;;;;;;4975947;28;20442;-64
2021/04/27 08:40:15;;;;;;;7.87;5.70;;;20.50;45.10;;;;;;4975987;28;20459;-64
2021/04/27 08:42:44;;;;;;;6.50;6.00;;;20.50;45.80;;;;;;4975475;28;20945;-64
2021/04/27 08:45:11;;;;;;;6.90;5.80;;;20.70;45.40;;;;;;4975935;28;20450;-63
2021/04/27 08:47:38;;;;;;;6.13;5.63;;;21.00;44.50;;;;;;4975764;28;20459;-63
2021/04/27 08:50:08;;;;;;;6.73;6.10;;;21.20;44.70;;;;;;4975128;28;20607;-64
2021/04/27 08:52:35;;;;;;;6.63;6.03;;;21.80;45.00;;;;;;4975261;28;20477;-64
2021/04/27 08:55:01;;;;;;;6.30;5.80;;;22.50;47.70;;;;;;4976078;28;20478;-64
2021/04/27 08:57:27;;;;;;;10.13;6.10;;;22.80;43.50;;;;;;4975648;28;20481;-64
2021/04/27 08:59:53;;;;;;;6.00;5.60;;;22.50;42.10;;;;;;4975606;28;20451;-65
2021/04/27 09:02:27;;;;;;;7.00;5.87;;;21.70;45.60;;;;;;4975110;28;21012;-64
2021/04/27 09:04:53;;;;;;;6.43;5.83;;;21.50;43.90;;;;;;4975624;28;20470;-64
2021/04/27 09:07:22;;;;;;;7.70;5.60;;;21.50;45.60;;;;;;4975482;28;20439;-64
2021/04/27 09:09:51;;;;;;;7.30;5.23;;;21.50;46.70;;;;;;4975903;28;20455;-64
2021/04/27 09:12:21;;;;;;;7.57;6.93;;;22.30;45.20;;;;;;4975415;28;20479;-64
2021/04/27 09:14:47;;;;;;;12.70;6.40;;;22.60;44.10;;;;;;4975454;28;20482;-64
2021/04/27 09:17:14;;;;;;;7.37;6.10;;;23.10;43.60;;;;;;4984885;28;20446;-64
2021/04/27 09:19:44;;;;;;;6.80;6.20;;;22.80;44.90;;;;;;4983693;28;20529;-65
2021/04/27 09:22:16;;;;;;;6.90;6.17;;;21.50;42.80;;;;;;4976616;28;20477;-64
2021/04/27 09:24:45;;;;;;;6.83;6.10;;;21.10;44.90;;;;;;4976254;28;20863;-63
2021/04/27 09:27:14;;;;;;;6.80;6.20;;;21.40;45.80;;;;;;4975373;28;20459;-64
2021/04/27 09:29:43;;;;;;;10.10;7.20;;;21.90;46.10;;;;;;4975587;28;20450;-64
2021/04/27 09:32:10;;;;;;;7.83;6.70;;;22.80;45.10;;;;;;4975191;28;20474;-64
2021/04/27 09:34:38;;;;;;;7.53;6.83;;;23.10;43.50;;;;;;4975237;28;20467;-64
2021/04/27 09:37:07;;;;;;;7.00;6.40;;;22.90;43.90;;;;;;4975394;28;20458;-64
2021/04/27 09:39:36;;;;;;;7.80;6.97;;;23.90;42.70;;;;;;4975337;28;20457;-64
2021/04/27 09:42:05;;;;;;;8.13;7.30;;;23.40;44.10;;;;;;4975227;28;20474;-64
2021/04/27 09:44:38;;;;;;;7.83;7.13;;;24.20;40.70;;;;;;4974953;28;20462;-64
2021/04/27 09:47:14;;;;;;;7.20;6.53;;;24.30;40.90;;;;;;4975078;28;20475;-64
2021/04/27 09:49:40;;;;;;;8.00;7.33;;;24.90;40.30;;;;;;4974647;28;20454;-64
2021/04/27 09:52:11;;;;;;;7.33;6.80;;;25.90;40.40;;;;;;4975426;28;20474;-64
2021/04/27 09:54:57;;;;;;;9.07;8.17;;;26.00;39.60;;;;;;4975574;28;20541;-64
2021/04/27 09:57:28;;;;;;;8.00;7.20;;;26.40;37.80;;;;;;4974724;28;20458;-63
2021/04/27 09:59:55;;;;;;;8.60;7.60;;;26.50;38.50;;;;;;4974803;28;20455;-63
2021/04/27 10:02:22;;;;;;;8.60;7.80;;;26.60;37.10;;;;;;4977149;28;20486;-63
2021/04/27 10:04:50;;;;;;;8.13;7.10;;;25.90;39.30;;;;;;4978693;28;20815;-63
2021/04/27 10:07:18;;;;;;;8.00;7.20;;;25.80;42.00;;;;;;4978680;28;20497;-63
2021/04/27 10:09:46;;;;;;;11.73;7.60;;;25.60;40.50;;;;;;4978628;28;20462;-63
2021/04/27 10:12:13;;;;;;;7.50;6.90;;;26.10;39.00;;;;;;4978681;28;20514;-63
2021/04/27 10:14:40;;;;;;;9.90;6.73;;;26.30;40.40;;;;;;4978494;28;20477;-63
2021/04/27 10:17:15;;;;;;;7.30;6.63;;;25.80;42.50;;;;;;4978459;28;20858;-64
2021/04/27 10:19:41;;;;;;;8.77;7.53;;;26.30;42.40;;;;;;4978182;28;20944;-63
2021/04/27 10:22:07;;;;;;;9.03;7.80;;;26.60;41.20;;;;;;4978272;28;20478;-63
2021/04/27 10:24:34;;;;;;;7.87;7.07;;;26.20;41.80;;;;;;4978701;28;20447;-65
2021/04/27 10:27:00;;;;;;;7.60;6.90;;;26.10;39.80;;;;;;4979230;28;20443;-65
2021/04/27 10:29:27;;;;;;;8.83;8.03;;;26.40;41.50;;;;;;4978473;28;20481;-64
2021/04/27 10:32:15;;;;;;;7.73;7.13;;;25.80;39.70;;;;;;4978178;28;20478;-65
2021/04/27 10:35:11;;;;;;;7.67;7.07;;;26.10;39.50;;;;;;4978211;28;20870;-64
2021/04/27 10:38:01;;;;;;;7.97;6.67;;;26.00;39.20;;;;;;4978403;28;20443;-65
2021/04/27 10:40:51;;;;;;;8.23;7.43;;;26.30;40.80;;;;;;4979048;28;20442;-65
2021/04/27 10:43:32;;;;;;;9.03;7.50;;;26.40;38.10;;;;;;4978170;28;20457;-64
2021/04/27 10:46:01;;;;;;;8.60;7.90;;;26.00;39.50;;;;;;4977997;28;20454;-63
2021/04/27 10:48:29;;;;;;;7.83;7.03;;;25.60;40.10;;;;;;4977682;28;20953;-63
2021/04/27 10:50:56;;;;;;;7.23;6.63;;;25.70;40.00;;;;;;4978291;28;20482;-64
2021/04/27 10:53:34;;;;;;;8.23;7.53;;;26.10;40.80;;;;;;4978747;28;20505;-64
2021/04/27 10:56:00;;;;;;;8.73;7.80;;;25.80;40.20;;;;;;4978195;28;20529;-64
2021/04/27 10:58:45;;;;;;;8.50;7.80;;;25.20;37.80;;;;;;4978456;28;20541;-64
2021/04/27 11:01:19;;;;;;;7.90;7.20;;;25.20;40.50;;;;;;4977318;28;20486;-63
2021/04/27 11:03:50;;;;;;;9.00;8.10;;;26.20;38.80;;;;;;4978336;28;20462;-64
2021/04/27 11:06:16;;;;;;;10.20;7.77;;;26.40;37.40;;;;;;4978237;28;20505;-65
2021/04/27 11:08:45;;;;;;;8.33;7.63;;;25.50;38.90;;;;;;4977856;28;20457;-63
2021/04/27 11:11:20;;;;;;;8.27;7.40;;;24.90;40.40;;;;;;4978075;28;20477;-65
2021/04/27 11:13:47;;;;;;;8.50;7.60;;;25.10;40.70;;;;;;4977319;28;20461;-63
2021/04/27 11:16:24;;;;;;;10.10;8.17;;;25.30;40.40;;;;;;4977229;28;20827;-63
2021/04/27 11:18:51;;;;;;;10.10;8.20;;;24.80;40.40;;;;;;4977391;28;20450;-63
2021/04/27 11:21:18;;;;;;;9.13;8.33;;;23.80;40.80;;;;;;4977033;28;20506;-63
2021/04/27 11:23:52;;;;;;;9.33;8.37;;;23.30;43.60;;;;;;4977004;28;20451;-64
2021/04/27 11:26:41;;;;;;;8.63;7.93;;;23.00;45.40;;;;;;4976974;28;20435;-64
2021/04/27 11:29:11;;;;;;;9.60;8.57;;;23.70;40.70;;;;;;4977330;28;20443;-63
2021/04/27 11:32:04;;;;;;;9.33;8.43;;;23.10;41.10;;;;;;4976679;28;20529;-63
2021/04/27 11:34:47;;;;;;;7.63;7.03;;;23.00;42.80;;;;;;4977350;28;20450;-63
2021/04/27 11:37:17;;;;;;;10.23;9.37;;;22.90;43.20;;;;;;4977011;28;20445;-65
2021/04/27 11:39:44;;;;;;;8.90;8.10;;;22.10;43.90;;;;;;4977050;28;20443;-65
2021/04/27 11:42:10;;;;;;;9.80;8.90;;;22.60;41.80;;;;;;4976547;28;20478;-65
2021/04/27 11:44:38;;;;;;;9.33;8.53;;;22.40;42.20;;;;;;4976607;28;20451;-64
2021/04/27 11:47:08;;;;;;;8.90;8.10;;;21.70;41.30;;;;;;4976906;28;20466;-65
2021/04/27 11:49:55;;;;;;;8.70;7.90;;;21.90;43.70;;;;;;4976582;28;20450;-64
2021/04/27 11:52:40;;;;;;;10.90;7.90;;;22.00;42.30;;;;;;4976807;28;20498;-65
2021/04/27 11:55:11;;;;;;;9.20;8.40;;;21.80;42.80;;;;;;4975887;28;20992;-64
2021/04/27 11:57:42;;;;;;;8.10;7.30;;;21.90;43.80;;;;;;4976556;28;20439;-64
2021/04/27 12:00:10;;;;;;;9.90;8.97;;;21.90;46.50;;;;;;4976621;28;20443;-65
2021/04/27 12:02:37;;;;;;;11.97;8.57;;;22.20;47.40;;;;;;4976680;28;20474;-66
2021/04/27 12:05:05;;;;;;;11.73;8.30;;;21.90;44.30;;;;;;4976519;28;20470;-66
2021/04/27 12:07:31;;;;;;;10.40;9.50;;;22.00;45.40;;;;;;4976469;28;20567;-66
2021/04/27 12:09:59;;;;;;;10.07;8.10;;;21.90;43.60;;;;;;4976334;28;20501;-66
2021/04/27 12:12:27;;;;;;;11.40;8.27;;;21.60;44.50;;;;;;4975957;28;21001;-66
2021/04/27 12:14:54;;;;;;;13.40;8.70;;;21.60;44.10;;;;;;4975737;28;20987;-65
2021/04/27 12:17:28;;;;;;;9.60;8.80;;;21.60;41.30;;;;;;4976109;28;20450;-65
2021/04/27 12:20:19;;;;;;;11.70;8.90;;;21.50;45.20;;;;;;4976166;28;20477;-65
2021/04/27 12:22:49;;;;;;;9.47;8.67;;;21.80;42.00;;;;;;4961960;28;20513;-64
2021/04/27 12:25:21;;;;;;;9.60;7.87;;;21.80;42.40;;;;;;4975448;28;20454;-65
2021/04/27 12:27:48;;;;;;;9.40;8.50;;;21.70;43.20;;;;;;4976174;28;20454;-65
2021/04/27 12:30:18;;;;;;;9.40;7.73;;;21.60;42.80;;;;;;4975781;28;20933;-65
2021/04/27 12:32:48;;;;;;;10.23;8.93;;;21.60;47.00;;;;;;4977037;28;20446;-66
2021/04/27 12:35:22;;;;;;;9.80;7.90;;;22.00;44.70;;;;;;4976144;28;20478;-65
2021/04/27 12:37:58;;;;;;;9.30;8.40;;;22.00;41.30;;;;;;4975996;28;20443;-65
2021/04/27 12:40:26;;;;;;;9.10;8.30;;;22.00;43.70;;;;;;4976195;28;20805;-65
2021/04/27 12:42:54;;;;;;;9.33;8.30;;;21.80;42.10;;;;;;4976913;28;20867;-65
2021/04/27 12:45:22;;;;;;;10.07;9.07;;;21.90;44.20;;;;;;4975978;28;20451;-65
2021/04/27 12:47:59;;;;;;;9.93;9.10;;;21.90;40.90;;;;;;4976358;28;20462;-66
2021/04/27 12:50:26;;;;;;;8.90;8.00;;;21.90;42.90;;;;;;4976128;28;20470;-66
2021/04/27 12:52:55;;;;;;;10.33;8.80;;;22.00;41.70;;;;;;4976036;28;20486;-65
2021/04/27 12:55:23;;;;;;;9.07;8.30;;;21.80;41.30;;;;;;4975934;28;20483;-66
2021/04/27 12:57:49;;;;;;;9.27;8.37;;;21.60;42.00;;;;;;4975845;28;20954;-65
2021/04/27 13:00:19;;;;;;;8.83;7.97;;;21.60;40.50;;;;;;4975610;28;20454;-66
2021/04/27 13:02:46;;;;;;;9.23;8.27;;;21.30;43.00;;;;;;4976158;28;20439;-66
2021/04/27 13:05:13;;;;;;;9.17;7.90;;;21.50;43.50;;;;;;4976235;28;20459;-66
2021/04/27 13:07:41;;;;;;;12.00;8.43;;;21.70;42.90;;;;;;4976311;28;20459;-66
2021/04/27 13:10:10;;;;;;;9.20;8.27;;;21.70;44.60;;;;;;4976283;28;20462;-66
2021/04/27 13:12:37;;;;;;;9.50;8.60;;;21.60;42.80;;;;;;4975894;28;20479;-66
2021/04/27 13:15:08;;;;;;;8.57;7.83;;;21.60;40.10;;;;;;4975655;28;20530;-65
2021/04/27 13:17:37;;;;;;;9.50;7.97;;;21.70;45.10;;;;;;4975865;28;20486;-66
2021/04/27 13:20:15;;;;;;;8.87;8.00;;;21.70;44.20;;;;;;4975916;28;20450;-65
2021/04/27 13:22:46;;;;;;;12.73;9.10;;;21.60;41.30;;;;;;4976320;28;20538;-65
2021/04/27 13:25:15;;;;;;;9.10;8.30;;;21.10;43.00;;;;;;4976151;28;20444;-66
2021/04/27 13:27:44;;;;;;;10.20;9.10;;;21.30;41.10;;;;;;4975905;28;20513;-66
2021/04/27 13:30:14;;;;;;;8.80;8.00;;;21.30;41.90;;;;;;4976101;28;20513;-66
2021/04/27 13:32:51;;;;;;;9.33;8.17;;;21.30;41.90;;;;;;4975681;28;20461;-66
2021/04/27 13:35:26;;;;;;;10.57;8.87;;;21.60;44.30;;;;;;4975853;28;20466;-66
2021/04/27 13:37:55;;;;;;;8.60;7.70;;;21.80;44.80;;;;;;4975806;28;20787;-65
2021/04/27 13:40:22;;;;;;;8.40;7.70;;;21.90;43.90;;;;;;4975882;28;20461;-66
2021/04/27 13:42:50;;;;;;;9.50;8.47;;;22.10;43.20;;;;;;4976248;28;20459;-66
2021/04/27 13:45:17;;;;;;;7.80;7.10;;;22.10;38.90;;;;;;4976097;28;20475;-66
2021/04/27 13:47:45;;;;;;;11.40;8.17;;;22.10;40.90;;;;;;4975845;28;20458;-66
2021/04/27 13:50:13;;;;;;;10.00;8.47;;;22.40;43.10;;;;;;4975864;28;20482;-66
2021/04/27 13:52:39;;;;;;;10.10;8.20;;;22.30;41.10;;;;;;4975484;28;20475;-66
2021/04/27 13:55:08;;;;;;;8.60;7.67;;;22.10;41.60;;;;;;4975327;28;20479;-66
2021/04/27 13:57:35;;;;;;;8.20;7.47;;;22.00;41.20;;;;;;4975824;28;20467;-66
2021/04/27 14:00:01;;;;;;;8.17;7.37;;;22.00;39.80;;;;;;4975400;28;20481;-66
2021/04/27 14:02:27;;;;;;;10.50;7.37;;;21.90;41.40;;;;;;4975174;28;20993;-66
2021/04/27 14:04:54;;;;;;;8.87;8.00;;;22.00;42.40;;;;;;4975494;28;20480;-66
2021/04/27 14:07:20;;;;;;;8.00;7.23;;;22.10;40.60;;;;;;4975509;28;20486;-66
2021/04/27 14:09:47;;;;;;;8.03;7.30;;;22.20;42.60;;;;;;4976073;28;20535;-65
2021/04/27 14:12:15;;;;;;;8.73;8.03;;;22.10;39.60;;;;;;4975558;28;20483;-66
2021/04/27 14:14:41;;;;;;;7.23;6.53;;;22.10;39.40;;;;;;4975406;28;20459;-66
2021/04/27 14:17:07;;;;;;;7.87;7.17;;;22.10;40.40;;;;;;4975094;28;20455;-65
2021/04/27 14:19:34;;;;;;;8.67;7.50;;;22.00;41.00;;;;;;4975183;28;20461;-64
2021/04/27 14:22:00;;;;;;;11.10;7.30;;;22.20;40.20;;;;;;4975371;28;20486;-65
2021/04/27 14:24:26;;;;;;;9.20;7.10;;;22.20;41.50;;;;;;4974968;28;20465;-66
2021/04/27 14:26:52;;;;;;;7.67;6.97;;;22.00;39.30;;;;;;4975189;28;20461;-66
2021/04/27 14:29:20;;;;;;;7.90;7.20;;;21.90;39.60;;;;;;4975422;28;20454;-65
2021/04/27 14:31:46;;;;;;;7.63;6.90;;;21.90;39.40;;;;;;4975982;28;20478;-65
2021/04/27 14:34:12;;;;;;;8.07;7.30;;;21.60;39.80;;;;;;4975437;28;20454;-65
2021/04/27 14:36:38;;;;;;;7.33;6.53;;;21.30;37.90;;;;;;4976908;28;20478;-65
2021/04/27 14:39:05;;;;;;;6.90;6.30;;;21.40;37.90;;;;;;4976450;28;20532;-65
2021/04/27 14:41:31;;;;;;;6.90;6.30;;;21.30;36.50;;;;;;4976253;28;20475;-66
2021/04/27 14:43:57;;;;;;;8.50;7.17;;;21.50;39.50;;;;;;4975881;28;20458;-66
2021/04/27 14:46:24;;;;;;;7.80;7.10;;;21.60;39.70;;;;;;4975481;28;20455;-65
2021/04/27 14:48:51;;;;;;;6.67;6.17;;;21.70;38.80;;;;;;4978192;28;20454;-65
2021/04/27 14:51:17;;;;;;;7.77;6.17;;;21.70;39.40;;;;;;4978321;28;20889;-64
2021/04/27 14:53:43;;;;;;;7.40;6.20;;;21.80;43.00;;;;;;4978009;28;20964;-63
2021/04/27 14:56:09;;;;;;;7.60;7.00;;;22.10;43.90;;;;;;4978294;28;20478;-63
2021/04/27 14:58:35;;;;;;;8.70;7.10;;;22.30;37.80;;;;;;4978830;28;20465;-65
2021/04/27 15:01:02;;;;;;;10.70;6.90;;;22.20;41.40;;;;;;4977782;28;20504;-64
2021/04/27 15:03:29;;;;;;;7.20;6.60;;;22.30;37.50;;;;;;4978469;28;20458;-64
2021/04/27 15:05:55;;;;;;;8.00;6.70;;;22.40;40.90;;;;;;4978643;28;20450;-64
2021/04/27 15:08:21;;;;;;;5.97;5.40;;;22.30;40.70;;;;;;4977697;28;20458;-64
2021/04/27 15:10:48;;;;;;;7.80;7.00;;;22.40;40.40;;;;;;4977887;28;20550;-64
2021/04/27 15:13:14;;;;;;;7.57;6.87;;;22.50;41.40;;;;;;4977702;28;20462;-64
2021/04/27 15:15:40;;;;;;;10.93;7.40;;;22.70;39.20;;;;;;4978223;28;20479;-63
2021/04/27 15:18:06;;;;;;;7.10;6.50;;;22.40;37.60;;;;;;4977751;28;20942;-64
2021/04/27 15:20:33;;;;;;;6.40;5.80;;;22.30;39.60;;;;;;4977665;28;20459;-63
2021/04/27 15:23:00;;;;;;;10.53;6.50;;;22.40;38.70;;;;;;4978159;28;20458;-63
2021/04/27 15:25:26;;;;;;;7.53;6.57;;;22.00;40.50;;;;;;4978592;28;20542;-63
2021/04/27 15:27:56;;;;;;;7.40;6.60;;;22.10;37.60;;;;;;4978270;28;20451;-63
2021/04/27 15:30:24;;;;;;;7.37;6.17;;;22.20;37.10;;;;;;4978242;28;20938;-64
2021/04/27 15:32:51;;;;;;;6.53;6.00;;;21.70;38.60;;;;;;4978496;28;20454;-65
2021/04/27 15:35:18;;;;;;;6.83;5.97;;;21.80;37.90;;;;;;4978086;28;20533;-64
2021/04/27 15:37:47;;;;;;;9.23;5.90;;;21.80;37.00;;;;;;4977554;28;20802;-63
2021/04/27 15:40:16;;;;;;;10.23;6.90;;;21.60;38.20;;;;;;4977482;28;20458;-63
2021/04/27 15:42:42;;;;;;;7.93;7.23;;;21.30;37.90;;;;;;4977331;28;20459;-63
2021/04/27 15:45:10;;;;;;;16.93;7.23;;;21.30;39.40;;;;;;4976685;28;20946;-63
2021/04/27 15:47:37;;;;;;;7.67;6.97;;;21.30;39.20;;;;;;4977474;28;20461;-63
2021/04/27 15:50:04;;;;;;;8.00;7.20;;;21.30;41.30;;;;;;4977066;28;20462;-63
2021/04/27 15:52:30;;;;;;;7.50;6.63;;;21.30;36.60;;;;;;4976954;28;20481;-63
2021/04/27 15:54:57;;;;;;;7.03;6.33;;;21.10;37.50;;;;;;4976972;28;20462;-63
2021/04/27 15:57:24;;;;;;;6.67;6.00;;;21.00;39.60;;;;;;4977020;28;20454;-63
2021/04/27 15:59:50;;;;;;;6.93;6.33;;;21.10;38.80;;;;;;4975676;28;20450;-63
2021/04/27 16:02:16;;;;;;;8.00;7.30;;;20.90;37.40;;;;;;4978239;28;20489;-63
2021/04/27 16:04:42;;;;;;;7.20;6.60;;;20.90;38.70;;;;;;4978014;28;20462;-63
2021/04/27 16:07:09;;;;;;;8.60;6.77;;;21.10;41.00;;;;;;4978260;28;20451;-64
2021/04/27 16:09:35;;;;;;;13.80;6.87;;;21.30;38.70;;;;;;4979289;28;20454;-62
2021/04/27 16:12:02;;;;;;;7.53;6.20;;;21.30;37.70;;;;;;4977426;28;20470;-64
2021/04/27 16:14:30;;;;;;;7.67;6.17;;;21.40;37.80;;;;;;4978698;28;20562;-62
2021/04/27 16:16:58;;;;;;;6.20;5.70;;;21.20;37.60;;;;;;4977321;28;20498;-64
2021/04/27 16:19:24;;;;;;;7.83;6.57;;;21.20;39.60;;;;;;4977860;28;20459;-64
2021/04/27 16:21:50;;;;;;;6.60;6.10;;;21.20;38.60;;;;;;4977715;28;20482;-64
2021/04/27 16:24:16;;;;;;;7.30;6.57;;;21.00;39.00;;;;;;4978049;28;20454;-64
2021/04/27 16:26:43;;;;;;;7.10;5.70;;;21.10;37.40;;;;;;4977317;28;20451;-62
2021/04/27 16:29:10;;;;;;;7.00;6.40;;;21.00;39.20;;;;;;4978425;28;20465;-64
2021/04/27 16:31:36;;;;;;;6.80;6.30;;;20.70;36.60;;;;;;4976536;28;20474;-64
2021/04/27 16:34:03;;;;;;;7.07;6.53;;;20.50;37.40;;;;;;4976642;28;20474;-66
2021/04/27 16:36:29;;;;;;;7.07;6.43;;;20.30;36.50;;;;;;4976675;28;20985;-63
2021/04/27 16:38:56;;;;;;;7.00;6.40;;;20.30;36.80;;;;;;4977018;28;20458;-64
2021/04/27 16:41:22;;;;;;;6.90;6.10;;;20.30;39.00;;;;;;4977226;28;20471;-64
2021/04/27 16:43:48;;;;;;;6.57;6.07;;;20.00;38.30;;;;;;4977878;28;20459;-64
2021/04/27 16:46:15;;;;;;;7.70;6.90;;;20.00;39.20;;;;;;4976270;28;20450;-64
2021/04/27 16:48:41;;;;;;;8.10;6.90;;;19.90;38.90;;;;;;4976185;28;20462;-62
2021/04/27 16:51:08;;;;;;;6.93;6.40;;;19.80;39.20;;;;;;4975618;28;20817;-63
2021/04/27 16:53:34;;;;;;;7.03;6.50;;;19.80;39.40;;;;;;4975886;28;20455;-62